Time;durP1;ratioP1;P1;durP2;ratioP2;P2;SDS_P1;SDS_P2;PMS_P1;PMS_P2;Temp;Humidity;BMP_temperature;BMP_pressure;BME280_temperature;BME280_humidity;BME280_pressure;Samples;Min_cycle;Max_cycle;Signal;HPM_P1;HPM_P2
2022/09/19 07:00:50;;;;;;;1.23;0.50;;;14.90;99.90;;;;;;6220389;22;20268;-69
2022/09/19 07:03:18;;;;;;;2.00;0.50;;;15.00;99.90;;;;;;6245724;23;20176;-69
2022/09/19 07:05:47;;;;;;;2.77;0.90;;;14.80;99.90;;;;;;6243740;23;20180;-70
2022/09/19 07:08:14;;;;;;;2.77;0.60;;;14.70;99.90;;;;;;6240502;23;20286;-70
2022/09/19 07:10:42;;;;;;;1.93;0.53;;;14.90;99.90;;;;;;6243760;23;20628;-70
2022/09/19 07:13:14;;;;;;;3.23;0.80;;;14.90;99.90;;;;;;6244593;23;20210;-70
2022/09/19 07:15:42;;;;;;;2.93;0.73;;;14.90;99.90;;;;;;6244585;23;20620;-69
2022/09/19 07:18:12;;;;;;;2.07;0.60;;;14.90;99.90;;;;;;6244576;23;20261;-71
2022/09/19 07:20:40;;;;;;;1.57;0.70;;;14.80;99.90;;;;;;6244694;23;20203;-69
2022/09/19 07:23:11;;;;;;;2.67;0.77;;;14.50;99.90;;;;;;6244953;22;20176;-71
2022/09/19 07:25:38;;;;;;;2.50;0.80;;;14.30;99.90;;;;;;6244272;23;20643;-71
2022/09/19 07:28:07;;;;;;;1.97;0.50;;;14.40;99.90;;;;;;6244675;23;20199;-71
2022/09/19 07:30:35;;;;;;;1.97;0.87;;;15.10;99.90;;;;;;6245224;23;20183;-70
2022/09/19 07:33:04;;;;;;;3.57;0.67;;;16.10;99.90;;;;;;6244874;23;20176;-70
2022/09/19 07:35:36;;;;;;;4.13;0.80;;;16.90;99.90;;;;;;6244612;23;20203;-71
2022/09/19 07:38:03;;;;;;;2.90;0.63;;;17.40;99.90;;;;;;6244640;23;20237;-71
2022/09/19 07:40:30;;;;;;;3.25;0.70;;;17.80;99.90;;;;;;6239650;23;20204;-70
2022/09/19 07:43:00;;;;;;;2.88;0.75;;;17.70;99.90;;;;;;6244105;23;20258;-71
2022/09/19 07:45:27;;;;;;;1.02;0.50;;;18.00;99.90;;;;;;6244372;23;20175;-70
2022/09/19 07:47:55;;;;;;;2.90;0.88;;;18.20;99.90;;;;;;6244572;23;20695;-71
2022/09/19 07:50:22;;;;;;;7.15;0.90;;;18.40;99.90;;;;;;6245191;23;20583;-70
2022/09/19 07:52:58;;;;;;;12.13;1.70;;;18.90;99.90;;;;;;6246719;23;20182;-70
2022/09/19 07:55:25;;;;;;;3.38;0.75;;;19.50;99.90;;;;;;6246727;23;20190;-69
2022/09/19 07:57:53;;;;;;;3.65;0.70;;;19.50;99.90;;;;;;6246486;23;20195;-71
2022/09/19 08:00:20;;;;;;;6.25;1.65;;;19.40;99.90;;;;;;6246024;23;20548;-71
2022/09/19 08:02:54;;;;;;;6.43;1.30;;;20.10;99.90;;;;;;6246078;23;20179;-71
2022/09/19 08:05:21;;;;;;;8.00;1.35;;;20.60;99.90;;;;;;6246687;23;20176;-69
2022/09/19 08:07:49;;;;;;;1.85;0.70;;;21.10;99.90;;;;;;6246303;22;20726;-70
2022/09/19 08:10:16;;;;;;;3.05;0.80;;;20.90;99.90;;;;;;6244552;23;20188;-70
2022/09/19 08:12:44;;;;;;;2.45;0.73;;;20.70;99.90;;;;;;6243886;23;20180;-70
2022/09/19 08:15:15;;;;;;;2.08;0.65;;;20.30;99.90;;;;;;6246500;23;20263;-70
2022/09/19 08:17:42;;;;;;;4.03;1.17;;;19.90;99.90;;;;;;6245966;23;20490;-70
2022/09/19 08:20:09;;;;;;;8.43;0.75;;;19.80;99.90;;;;;;6246242;22;20257;-72
2022/09/19 08:22:36;;;;;;;3.47;1.17;;;19.50;99.90;;;;;;6247237;23;20198;-71
2022/09/19 08:25:05;;;;;;;1.67;0.57;;;19.20;99.90;;;;;;6247305;23;20179;-71
2022/09/19 08:27:32;;;;;;;1.50;0.60;;;19.10;99.90;;;;;;6247292;23;20195;-71
2022/09/19 08:29:58;;;;;;;3.13;0.90;;;19.30;99.90;;;;;;6247410;23;20182;-69
2022/09/19 08:32:26;;;;;;;3.15;0.70;;;19.30;99.90;;;;;;6246949;23;20182;-71
2022/09/19 08:34:53;;;;;;;3.72;0.82;;;19.00;99.90;;;;;;6246780;23;20640;-69
2022/09/19 08:37:20;;;;;;;2.83;0.80;;;18.80;99.90;;;;;;6247152;23;20237;-71
2022/09/19 08:42:36;;;;;;;3.45;0.52;;;18.60;99.90;;;;;;6246343;23;20179;-71
2022/09/19 08:45:08;;;;;;;4.07;0.90;;;18.40;99.90;;;;;;6247195;22;20179;-70
2022/09/19 08:47:37;;;;;;;3.20;0.90;;;18.30;99.90;;;;;;6246717;23;20195;-72
2022/09/19 08:50:07;;;;;;;5.15;0.90;;;18.20;99.90;;;;;;6246376;23;20508;-71
2022/09/19 08:52:40;;;;;;;2.67;0.97;;;17.80;99.90;;;;;;6247100;23;20176;-71
2022/09/19 08:55:14;;;;;;;2.87;0.60;;;17.70;99.90;;;;;;6247146;23;20183;-71
2022/09/19 08:57:49;;;;;;;3.13;0.87;;;17.70;99.90;;;;;;6247084;23;20270;-71
2022/09/19 09:00:19;;;;;;;4.93;0.77;;;17.60;99.90;;;;;;6246713;23;20213;-73
2022/09/19 09:02:55;;;;;;;2.20;0.68;;;17.50;99.90;;;;;;6246486;23;20543;-71
2022/09/19 09:05:31;;;;;;;3.43;0.80;;;17.50;99.90;;;;;;6247478;23;20205;-72
2022/09/19 09:08:07;;;;;;;3.17;0.60;;;17.30;99.90;;;;;;6246767;23;20199;-71
2022/09/19 09:10:47;;;;;;;3.40;0.93;;;17.20;99.90;;;;;;6246902;23;20175;-73
2022/09/19 09:13:33;;;;;;;1.77;0.50;;;17.20;99.90;;;;;;6246425;23;20627;-73
2022/09/19 09:16:09;;;;;;;1.17;0.50;;;17.30;99.90;;;;;;6246272;23;20508;-73
2022/09/19 09:19:07;;;;;;;1.93;0.90;;;17.20;99.90;;;;;;6247220;22;20181;-73
2022/09/19 09:21:42;;;;;;;6.70;0.53;;;17.30;99.90;;;;;;6246765;23;20175;-72
2022/09/19 09:24:16;;;;;;;3.13;0.50;;;17.60;99.90;;;;;;6247197;23;20203;-72
2022/09/19 09:26:47;;;;;;;3.60;0.80;;;17.70;99.90;;;;;;6247001;23;20196;-71
2022/09/19 09:29:23;;;;;;;2.50;0.50;;;18.00;99.90;;;;;;6246516;23;20179;-71
2022/09/19 09:31:54;;;;;;;3.67;0.60;;;17.90;99.90;;;;;;6246408;22;20179;-71
2022/09/19 09:34:28;;;;;;;4.53;0.63;;;18.00;99.90;;;;;;6246849;23;20176;-72
2022/09/19 09:37:02;;;;;;;2.67;0.50;;;17.90;99.90;;;;;;6246273;23;20204;-71
2022/09/19 09:39:49;;;;;;;1.08;0.65;;;17.90;99.90;;;;;;6246532;23;20211;-72
2022/09/19 09:42:26;;;;;;;1.75;0.60;;;18.20;99.90;;;;;;6246792;23;20199;-71
2022/09/19 09:45:00;;;;;;;3.58;0.63;;;18.40;99.90;;;;;;6246867;22;20176;-68
2022/09/19 09:47:44;;;;;;;4.05;0.90;;;18.70;99.90;;;;;;6246644;23;20201;-70
2022/09/19 09:50:24;;;;;;;3.13;0.80;;;19.00;99.90;;;;;;6246422;23;20179;-72
2022/09/19 09:52:59;;;;;;;3.03;0.70;;;18.90;99.90;;;;;;6246777;22;20175;-73
2022/09/19 09:58:29;;;;;;;2.75;0.80;;;18.90;99.90;;;;;;6246307;23;20179;-71
2022/09/19 10:04:16;;;;;;;7.47;0.77;;;19.10;99.90;;;;;;6246457;23;20178;-70
2022/09/19 10:06:52;;;;;;;1.52;0.55;;;19.20;99.90;;;;;;6245496;23;20195;-71
2022/09/19 10:09:23;;;;;;;6.00;1.02;;;19.10;99.90;;;;;;6246081;23;20258;-69
2022/09/19 10:11:56;;;;;;;3.22;0.60;;;19.30;99.90;;;;;;6246379;23;20175;-69
2022/09/19 10:14:28;;;;;;;0.98;0.40;;;19.40;99.90;;;;;;6246256;22;20180;-69
2022/09/19 10:17:01;;;;;;;2.03;0.55;;;19.50;99.90;;;;;;6245890;23;20261;-67
2022/09/19 10:19:34;;;;;;;0.50;0.30;;;19.40;99.90;;;;;;6246139;22;20206;-70
2022/09/19 10:22:00;;;;;;;2.72;0.63;;;19.50;99.90;;;;;;6246196;23;20179;-69
2022/09/19 10:24:50;;;;;;;2.60;0.60;;;19.40;99.90;;;;;;6246236;23;20182;-70
2022/09/19 10:27:19;;;;;;;4.13;0.45;;;19.50;99.90;;;;;;6246091;23;20196;-71
2022/09/19 10:29:52;;;;;;;1.83;0.57;;;19.50;99.90;;;;;;6246463;23;20237;-70
2022/09/19 10:32:24;;;;;;;3.30;0.80;;;19.60;99.90;;;;;;6245895;23;20182;-70
2022/09/19 10:34:52;;;;;;;2.45;0.47;;;19.40;99.90;;;;;;6246359;22;20176;-70
2022/09/19 10:37:21;;;;;;;3.03;0.50;;;19.40;99.90;;;;;;6246257;23;20200;-70
2022/09/19 10:39:48;;;;;;;3.88;0.55;;;19.20;99.90;;;;;;6246065;23;20199;-71
2022/09/19 10:42:36;;;;;;;1.67;0.50;;;18.80;99.90;;;;;;6246255;23;20180;-71
2022/09/19 10:45:25;;;;;;;3.75;0.70;;;19.00;99.90;;;;;;6245942;23;20575;-69
2022/09/19 10:47:55;;;;;;;4.13;0.40;;;19.10;99.90;;;;;;6245405;23;20682;-71
2022/09/19 10:50:24;;;;;;;3.33;0.50;;;19.50;99.90;;;;;;6245979;23;20186;-73
2022/09/19 10:52:53;;;;;;;1.25;0.40;;;19.80;99.90;;;;;;6245334;23;20647;-71
2022/09/19 10:55:22;;;;;;;1.95;0.40;;;19.80;99.90;;;;;;6245885;23;20176;-70
2022/09/19 10:57:59;;;;;;;3.25;0.52;;;19.90;99.90;;;;;;6245663;23;20231;-72
2022/09/19 11:00:28;;;;;;;2.42;0.70;;;20.10;99.90;;;;;;6245355;22;20217;-70
2022/09/19 11:03:17;;;;;;;2.70;0.57;;;19.90;99.90;;;;;;6245095;22;20179;-72
2022/09/19 11:05:44;;;;;;;3.60;1.15;;;19.90;99.90;;;;;;6245309;23;20176;-70
2022/09/19 11:08:24;;;;;;;3.30;0.50;;;20.10;99.90;;;;;;6244763;23;20202;-71
2022/09/19 11:10:51;;;;;;;2.38;0.60;;;20.00;99.90;;;;;;6245186;22;20185;-71
2022/09/19 11:13:20;;;;;;;1.15;0.30;;;19.70;99.90;;;;;;6245473;23;20176;-71
2022/09/19 11:16:16;;;;;;;2.80;0.60;;;19.60;99.90;;;;;;6245309;22;20183;-72
2022/09/19 11:19:03;;;;;;;3.10;0.70;;;19.50;99.90;;;;;;6245597;22;20241;-71
2022/09/19 11:21:46;;;;;;;2.08;0.43;;;19.50;99.90;;;;;;6245249;22;20207;-71
2022/09/19 11:24:30;;;;;;;3.13;0.45;;;19.60;99.90;;;;;;6246455;23;20175;-70
2022/09/19 11:27:11;;;;;;;2.42;0.43;;;19.40;99.90;;;;;;6247468;23;20493;-72
2022/09/19 11:29:55;;;;;;;2.63;0.55;;;19.30;99.90;;;;;;6247337;23;20179;-71
2022/09/19 11:32:34;;;;;;;3.90;1.15;;;19.10;99.90;;;;;;6247512;23;20175;-70
2022/09/19 11:35:14;;;;;;;2.55;0.50;;;19.20;99.90;;;;;;6240975;23;20175;-72
2022/09/19 11:37:55;;;;;;;1.42;0.75;;;19.30;99.90;;;;;;6243854;23;20195;-72
2022/09/19 11:40:37;;;;;;;2.45;0.60;;;19.10;99.90;;;;;;6245579;23;20199;-69
2022/09/19 11:43:14;;;;;;;4.40;1.00;;;18.80;99.90;;;;;;6245294;23;20176;-69
2022/09/19 11:45:51;;;;;;;4.13;0.60;;;18.50;99.90;;;;;;6242187;23;20262;-72
2022/09/19 11:48:35;;;;;;;3.80;0.68;;;18.50;99.90;;;;;;6242800;23;20287;-69
2022/09/19 11:51:13;;;;;;;6.60;0.70;;;18.60;99.90;;;;;;6246380;23;20175;-76
2022/09/19 11:54:06;;;;;;;2.75;0.50;;;18.50;99.90;;;;;;6245966;23;20555;-74
2022/09/19 11:56:52;;;;;;;1.75;0.43;;;18.50;99.90;;;;;;6241592;23;20237;-72
2022/09/19 11:59:39;;;;;;;1.63;0.50;;;18.80;99.90;;;;;;6241938;23;20692;-73
2022/09/19 12:02:27;;;;;;;4.07;0.57;;;18.90;99.90;;;;;;6244920;22;20255;-69
2022/09/19 12:05:06;;;;;;;1.20;0.50;;;19.10;99.90;;;;;;6243667;23;20175;-71
2022/09/19 12:07:47;;;;;;;1.52;0.60;;;18.90;99.90;;;;;;6245672;23;20195;-75
2022/09/19 12:10:18;;;;;;;3.63;0.50;;;18.60;99.90;;;;;;6244694;23;20266;-73
2022/09/19 12:12:59;;;;;;;1.73;0.80;;;18.60;99.90;;;;;;6244917;23;20563;-69
2022/09/19 12:15:28;;;;;;;2.15;0.50;;;18.70;99.90;;;;;;6245770;23;20191;-70
2022/09/19 12:18:00;;;;;;;2.00;0.75;;;18.60;99.90;;;;;;6245231;22;20195;-71
2022/09/19 12:20:32;;;;;;;1.60;0.50;;;18.50;99.90;;;;;;6245415;23;20698;-72
2022/09/19 12:24:52;;;;;;;1.27;0.40;;;18.50;99.90;;;;;;6245744;23;20211;-71
2022/09/19 12:25:53;;;;;;;2.83;0.43;;;18.50;99.90;;;;;;6244928;23;20186;-70
2022/09/19 12:28:23;;;;;;;2.85;0.40;;;18.40;99.90;;;;;;6245643;22;20690;-70
2022/09/19 12:30:58;;;;;;;0.95;0.30;;;18.50;99.90;;;;;;6242858;23;20258;-71
2022/09/19 12:33:32;;;;;;;3.75;0.60;;;18.60;99.90;;;;;;6241858;23;20229;-70
2022/09/19 12:36:05;;;;;;;0.43;0.30;;;18.80;99.90;;;;;;6245108;23;20175;-71
2022/09/19 12:38:40;;;;;;;1.17;0.30;;;18.70;99.90;;;;;;6244040;23;20195;-70
2022/09/19 12:41:14;;;;;;;1.73;0.60;;;18.30;99.90;;;;;;6245008;23;20249;-70
2022/09/19 12:43:46;;;;;;;2.17;0.60;;;17.80;99.90;;;;;;6242473;23;20180;-70
2022/09/19 12:46:29;;;;;;;2.50;0.47;;;17.20;99.90;;;;;;6244585;23;20184;-72
2022/09/19 12:49:03;;;;;;;2.50;0.33;;;16.90;99.90;;;;;;6244844;23;20184;-69
2022/09/19 12:51:46;;;;;;;4.43;0.70;;;16.90;99.90;;;;;;6245358;23;20179;-72
2022/09/19 12:54:18;;;;;;;4.43;0.50;;;17.00;99.90;;;;;;6244647;22;20636;-71
2022/09/19 12:56:51;;;;;;;2.87;0.40;;;17.20;99.90;;;;;;6244375;23;20266;-70
2022/09/19 12:59:22;;;;;;;2.60;0.47;;;16.90;99.90;;;;;;6244841;23;20175;-71
2022/09/19 13:01:56;;;;;;;4.13;0.80;;;16.90;99.90;;;;;;6244597;23;20536;-70
2022/09/19 13:04:34;;;;;;;3.30;0.40;;;16.90;99.90;;;;;;6244250;23;20179;-70
2022/09/19 13:07:09;;;;;;;1.80;0.73;;;17.10;99.90;;;;;;6245255;22;20202;-69
2022/09/19 13:09:44;;;;;;;2.20;0.53;;;17.00;99.90;;;;;;6246009;23;20543;-69
2022/09/19 13:12:16;;;;;;;1.93;0.47;;;17.10;99.90;;;;;;6245440;23;20179;-69
2022/09/19 13:14:48;;;;;;;0.70;0.30;;;17.20;99.90;;;;;;6245008;23;20175;-70
2022/09/19 13:25:35;;;;;;;1.63;0.30;;;16.80;99.90;;;;;;6244112;23;20182;-67
2022/09/19 13:28:26;;;;;;;0.30;0.13;;;16.70;99.90;;;;;;6244900;23;20199;-68
2022/09/19 13:31:01;;;;;;;1.33;0.30;;;16.90;99.90;;;;;;6245218;23;20176;-69
2022/09/19 13:33:35;;;;;;;5.10;0.33;;;17.10;99.90;;;;;;6244290;23;20183;-68
2022/09/19 13:36:08;;;;;;;2.50;0.50;;;17.30;99.90;;;;;;6245080;22;20183;-69
2022/09/19 13:38:38;;;;;;;2.73;0.30;;;17.60;99.90;;;;;;6243787;23;20648;-68
2022/09/19 13:41:08;;;;;;;1.27;0.40;;;17.80;99.90;;;;;;6244890;23;20215;-65
2022/09/19 13:43:49;;;;;;;1.80;0.40;;;17.80;99.90;;;;;;6244921;23;20198;-66
2022/09/19 13:46:23;;;;;;;4.80;0.77;;;18.00;99.90;;;;;;6244669;23;20176;-70
2022/09/19 13:48:56;;;;;;;0.73;0.30;;;18.00;99.90;;;;;;6244347;23;20643;-72
2022/09/19 13:51:31;;;;;;;3.83;0.40;;;18.00;99.90;;;;;;6244923;23;20616;-66
2022/09/19 13:54:31;;;;;;;2.03;0.40;;;18.10;99.90;;;;;;6244678;22;20186;-66
2022/09/19 13:57:10;;;;;;;1.33;0.40;;;18.20;99.90;;;;;;6244844;23;20266;-65
2022/09/19 13:59:40;;;;;;;3.47;0.57;;;18.30;99.90;;;;;;6244496;23;20175;-67
2022/09/19 14:02:21;;;;;;;1.70;0.40;;;18.10;99.90;;;;;;6243758;22;20203;-67
2022/09/19 14:04:55;;;;;;;2.40;0.30;;;17.90;99.90;;;;;;6244804;23;20179;-68
2022/09/19 14:07:28;;;;;;;1.00;0.30;;;17.60;99.90;;;;;;6244656;23;20207;-68
2022/09/19 14:09:57;;;;;;;1.73;0.30;;;17.60;99.90;;;;;;6244004;23;20234;-71
2022/09/19 14:13:04;;;;;;;1.80;0.30;;;17.30;99.90;;;;;;6244883;22;20258;-67
2022/09/19 14:15:48;;;;;;;1.33;0.23;;;17.30;99.90;;;;;;6244800;23;20636;-71
2022/09/19 14:18:51;;;;;;;1.10;0.20;;;17.40;99.90;;;;;;6243543;23;20616;-68
2022/09/19 14:21:55;;;;;;;2.70;0.37;;;17.40;99.90;;;;;;6245035;23;20215;-72
2022/09/19 14:24:48;;;;;;;2.97;0.50;;;17.40;99.90;;;;;;6243842;23;20254;-67
2022/09/19 14:27:45;;;;;;;2.27;0.30;;;17.30;99.90;;;;;;6236205;22;20694;-67
2022/09/19 14:30:24;;;;;;;2.00;0.33;;;17.30;99.90;;;;;;6237779;23;20176;-67
2022/09/19 14:33:07;;;;;;;3.73;0.40;;;17.40;99.90;;;;;;6243604;23;20185;-69
2022/09/19 14:35:42;;;;;;;1.17;0.50;;;17.30;99.90;;;;;;6244782;23;20186;-71
2022/09/19 14:38:34;;;;;;;1.20;0.83;;;17.30;99.90;;;;;;6244670;23;20199;-67
2022/09/19 14:41:09;;;;;;;1.80;0.50;;;17.40;99.90;;;;;;6244717;23;20203;-67
2022/09/19 14:44:20;;;;;;;3.93;0.40;;;17.40;99.90;;;;;;6244697;22;20181;-67
2022/09/19 14:46:55;;;;;;;1.10;0.33;;;17.30;99.90;;;;;;6227232;22;20217;-74
2022/09/19 14:49:25;;;;;;;2.87;0.30;;;17.30;99.90;;;;;;6244526;23;20175;-68
2022/09/19 14:52:00;;;;;;;1.10;0.40;;;17.30;99.90;;;;;;6244239;23;20175;-72
2022/09/19 14:54:38;;;;;;;3.30;0.57;;;17.40;99.90;;;;;;6241106;23;20189;-67
2022/09/19 14:57:10;;;;;;;5.33;0.53;;;17.40;99.90;;;;;;6244545;23;20202;-68
2022/09/19 14:59:37;;;;;;;1.40;0.30;;;17.50;99.90;;;;;;6242336;23;20237;-66
2022/09/19 15:02:19;;;;;;;0.50;0.20;;;17.60;99.90;;;;;;6243438;23;20679;-66
2022/09/19 15:04:49;;;;;;;4.33;0.77;;;17.60;99.90;;;;;;6241893;23;20185;-67
2022/09/19 15:07:16;;;;;;;3.13;1.07;;;17.60;99.90;;;;;;6242261;23;20253;-67
2022/09/19 15:09:43;;;;;;;5.73;2.10;;;17.70;99.90;;;;;;6242417;23;20258;-67
2022/09/19 15:12:15;;;;;;;2.77;0.90;;;17.70;99.90;;;;;;6242674;23;20179;-72
2022/09/19 15:14:45;;;;;;;2.30;0.70;;;17.90;99.90;;;;;;6243915;23;20187;-68
2022/09/19 15:17:16;;;;;;;1.30;0.30;;;18.00;99.90;;;;;;6243468;22;20199;-67
2022/09/19 15:19:45;;;;;;;1.77;0.40;;;17.90;99.90;;;;;;6241257;23;20183;-72
2022/09/19 15:22:31;;;;;;;0.77;0.30;;;17.80;99.90;;;;;;6244305;23;20207;-66
2022/09/19 15:25:01;;;;;;;1.00;0.40;;;17.80;99.90;;;;;;6243486;22;20175;-68
2022/09/19 15:27:31;;;;;;;4.43;1.70;;;17.70;99.90;;;;;;6244031;23;20691;-68
2022/09/19 15:30:07;;;;;;;1.93;0.43;;;17.60;99.90;;;;;;6244356;22;20175;-69
2022/09/19 15:32:39;;;;;;;3.70;0.33;;;17.40;99.90;;;;;;6243887;23;20262;-67
2022/09/19 15:35:08;;;;;;;1.17;0.50;;;17.40;99.90;;;;;;6244354;22;20182;-68
2022/09/19 15:37:38;;;;;;;1.63;0.40;;;17.30;99.90;;;;;;6243711;23;20672;-67
2022/09/19 15:40:08;;;;;;;1.10;0.40;;;17.30;99.90;;;;;;6244371;23;20262;-71
2022/09/19 15:42:39;;;;;;;1.27;0.20;;;17.10;99.90;;;;;;6244352;22;20294;-75
2022/09/19 15:45:38;;;;;;;1.20;0.30;;;17.20;99.90;;;;;;6239888;23;20175;-71
2022/09/19 15:48:19;;;;;;;1.00;0.30;;;17.30;99.90;;;;;;6243138;23;20204;-73
2022/09/19 15:50:48;;;;;;;2.97;0.50;;;17.20;99.90;;;;;;6244261;23;20563;-75
2022/09/19 15:53:39;;;;;;;1.17;0.20;;;17.10;99.90;;;;;;6243566;23;20186;-70
2022/09/19 15:56:09;;;;;;;0.90;0.20;;;17.10;99.90;;;;;;6237904;22;20206;-72
2022/09/19 15:58:41;;;;;;;3.00;0.60;;;17.00;99.90;;;;;;6244291;23;20182;-71
2022/09/19 16:01:21;;;;;;;3.27;0.60;;;17.10;99.90;;;;;;6243245;23;20190;-69
2022/09/19 16:03:55;;;;;;;2.03;0.30;;;17.20;99.90;;;;;;6243992;23;20445;-70
2022/09/19 16:09:12;;;;;;;2.37;0.40;;;17.10;99.90;;;;;;6242855;23;20571;-71
2022/09/19 16:11:44;;;;;;;4.53;0.60;;;17.00;99.90;;;;;;6244969;23;20259;-69
2022/09/19 16:14:17;;;;;;;0.30;0.20;;;16.90;99.90;;;;;;6244771;23;20237;-71
2022/09/19 16:16:49;;;;;;;2.67;0.40;;;16.80;99.90;;;;;;6245193;23;20196;-71
2022/09/19 16:19:38;;;;;;;1.10;0.40;;;16.90;99.90;;;;;;6245718;23;20179;-68
2022/09/19 16:22:05;;;;;;;2.33;0.60;;;16.90;99.90;;;;;;6244882;22;20203;-71
2022/09/19 16:24:41;;;;;;;2.50;0.60;;;16.90;99.90;;;;;;6245375;22;20176;-73
2022/09/19 16:27:08;;;;;;;1.63;0.40;;;17.00;99.90;;;;;;6246324;23;20199;-74
2022/09/19 16:29:42;;;;;;;2.30;0.30;;;17.10;99.90;;;;;;6246426;23;20176;-73
2022/09/19 16:32:16;;;;;;;1.33;0.30;;;17.30;99.90;;;;;;6247416;23;20180;-72
2022/09/19 16:34:45;;;;;;;0.90;0.30;;;17.20;99.90;;;;;;6246669;23;20175;-73
2022/09/19 16:37:25;;;;;;;1.77;0.40;;;17.20;99.90;;;;;;6244632;22;20250;-76
2022/09/19 16:39:55;;;;;;;4.07;0.30;;;17.30;99.90;;;;;;6245587;23;20252;-75
2022/09/19 16:42:27;;;;;;;2.27;0.50;;;17.20;99.90;;;;;;6245104;23;20215;-73
2022/09/19 16:45:12;;;;;;;1.43;0.30;;;17.20;99.90;;;;;;6244838;23;20175;-73
2022/09/19 16:47:40;;;;;;;2.57;0.40;;;17.10;99.90;;;;;;6245472;23;20199;-72
2022/09/19 16:50:09;;;;;;;0.80;0.40;;;17.00;99.90;;;;;;6245397;22;20182;-73
2022/09/19 16:52:38;;;;;;;1.10;0.30;;;16.90;99.90;;;;;;6244499;23;20550;-72
2022/09/19 16:55:13;;;;;;;3.80;0.40;;;16.80;99.90;;;;;;6245241;23;20184;-74
2022/09/19 16:57:40;;;;;;;1.13;0.37;;;16.90;99.90;;;;;;6245328;23;20236;-73
2022/09/19 17:00:08;;;;;;;2.13;0.30;;;16.80;99.90;;;;;;6242430;23;20179;-73
2022/09/19 17:02:35;;;;;;;2.20;0.60;;;16.60;99.90;;;;;;6244783;22;20281;-70
2022/09/19 17:05:13;;;;;;;1.20;0.30;;;16.60;99.90;;;;;;6245047;22;20184;-73
2022/09/19 17:07:39;;;;;;;2.37;0.30;;;16.70;99.90;;;;;;6244570;23;20692;-74
2022/09/19 17:10:06;;;;;;;1.97;0.60;;;16.70;99.90;;;;;;6244520;23;20470;-73
2022/09/19 17:12:33;;;;;;;2.43;0.50;;;16.60;99.90;;;;;;6245068;23;20302;-74
2022/09/19 17:15:01;;;;;;;1.07;0.50;;;16.50;99.90;;;;;;6245018;23;20187;-72
2022/09/19 17:17:27;;;;;;;0.80;0.30;;;16.40;99.90;;;;;;6246352;23;20200;-72
2022/09/19 17:19:54;;;;;;;3.07;0.50;;;16.30;99.90;;;;;;6247017;23;20211;-72
2022/09/19 17:22:22;;;;;;;2.40;0.47;;;16.30;99.90;;;;;;6246243;23;20709;-72
2022/09/19 17:24:49;;;;;;;1.57;0.30;;;16.40;99.90;;;;;;6246567;23;20175;-71
2022/09/19 17:27:16;;;;;;;0.93;0.37;;;16.40;99.90;;;;;;6246653;23;20528;-72
2022/09/19 17:29:43;;;;;;;0.40;0.30;;;16.40;99.90;;;;;;6246922;23;20176;-74
2022/09/19 17:32:12;;;;;;;2.00;0.73;;;16.20;99.90;;;;;;6246144;23;20270;-68
2022/09/19 17:34:38;;;;;;;2.30;0.30;;;16.00;99.90;;;;;;6246742;23;20482;-68
2022/09/19 17:37:05;;;;;;;1.40;0.50;;;16.10;99.90;;;;;;6246557;23;20195;-68
2022/09/19 17:39:33;;;;;;;2.33;0.93;;;16.20;99.90;;;;;;6246606;23;20175;-68
2022/09/19 17:42:00;;;;;;;2.73;0.50;;;16.10;99.90;;;;;;6246623;23;20196;-68
2022/09/19 17:44:27;;;;;;;2.47;0.43;;;16.10;99.90;;;;;;6245931;23;20638;-68
2022/09/19 17:46:53;;;;;;;1.63;0.40;;;16.10;99.90;;;;;;6246170;23;20202;-67
2022/09/19 17:49:20;;;;;;;4.93;0.40;;;16.10;99.90;;;;;;6246456;23;20176;-68
2022/09/19 17:51:47;;;;;;;1.13;0.50;;;16.00;99.90;;;;;;6246097;23;20262;-68
2022/09/19 17:54:15;;;;;;;2.50;0.53;;;16.00;99.90;;;;;;6245901;23;20713;-67
2022/09/19 17:56:43;;;;;;;2.30;0.70;;;16.10;99.90;;;;;;6246600;23;20223;-68
2022/09/19 17:59:10;;;;;;;3.67;0.90;;;15.80;99.90;;;;;;6246608;23;20183;-68
2022/09/19 18:04:21;;;;;;;2.80;0.30;;;15.80;99.90;;;;;;6246038;23;20202;-68
2022/09/19 18:06:48;;;;;;;2.53;0.30;;;15.70;99.90;;;;;;6246287;23;20202;-68
2022/09/19 18:09:15;;;;;;;3.60;0.60;;;15.70;99.90;;;;;;6246049;23;20176;-68
2022/09/19 18:11:44;;;;;;;1.33;0.40;;;15.70;99.90;;;;;;6245561;23;20179;-67
2022/09/19 18:14:12;;;;;;;2.97;0.50;;;15.70;99.90;;;;;;6245964;23;20639;-67
2022/09/19 18:16:39;;;;;;;2.57;0.50;;;15.60;99.90;;;;;;6246262;23;20199;-68
2022/09/19 18:19:08;;;;;;;2.00;1.00;;;15.60;99.90;;;;;;6245864;23;20624;-67
2022/09/19 18:21:35;;;;;;;2.20;0.47;;;15.50;99.90;;;;;;6243849;23;20180;-66
2022/09/19 18:24:02;;;;;;;2.83;0.50;;;15.60;99.90;;;;;;6244311;23;20215;-67
2022/09/19 18:26:29;;;;;;;2.33;0.53;;;15.50;99.90;;;;;;6244653;23;20210;-67
2022/09/19 18:28:58;;;;;;;2.53;0.30;;;15.40;99.90;;;;;;6245117;23;20175;-68
2022/09/19 18:31:25;;;;;;;2.33;0.40;;;15.30;99.90;;;;;;6245165;23;20229;-68
2022/09/19 18:33:53;;;;;;;4.03;1.23;;;15.50;99.90;;;;;;6245507;23;20297;-68
2022/09/19 18:36:22;;;;;;;1.03;0.70;;;15.40;99.90;;;;;;6242458;23;20204;-68
2022/09/19 18:38:50;;;;;;;5.13;0.80;;;15.50;99.90;;;;;;6241226;23;20243;-68
2022/09/19 18:41:17;;;;;;;1.43;0.40;;;15.50;99.90;;;;;;6244049;22;20179;-68
2022/09/19 18:43:45;;;;;;;2.10;0.67;;;15.50;99.90;;;;;;6244886;23;20302;-68
2022/09/19 18:46:17;;;;;;;1.97;0.67;;;15.50;99.90;;;;;;6244750;23;20183;-68
2022/09/19 18:48:44;;;;;;;3.07;0.80;;;15.50;99.90;;;;;;6245279;22;20267;-68
2022/09/19 18:51:12;;;;;;;1.73;0.50;;;15.40;99.90;;;;;;6245135;23;20175;-68
2022/09/19 18:53:39;;;;;;;1.67;0.40;;;15.40;99.90;;;;;;6244706;23;20218;-68
2022/09/19 18:56:07;;;;;;;1.40;0.40;;;15.30;99.90;;;;;;6244511;23;20642;-68
2022/09/19 18:58:35;;;;;;;0.33;0.20;;;15.20;99.90;;;;;;6244902;23;20198;-68
2022/09/19 19:01:04;;;;;;;1.20;0.50;;;15.20;99.90;;;;;;6244478;23;20190;-67
2022/09/19 19:03:34;;;;;;;2.13;0.50;;;15.30;99.90;;;;;;6245158;23;20285;-67
2022/09/19 19:06:02;;;;;;;3.40;1.07;;;15.40;99.90;;;;;;6244223;23;20655;-68
2022/09/19 19:08:32;;;;;;;3.07;0.70;;;15.50;99.90;;;;;;6245811;22;20206;-69
2022/09/19 19:10:59;;;;;;;2.37;0.60;;;15.30;99.90;;;;;;6245088;23;20182;-68
2022/09/19 19:13:26;;;;;;;6.33;0.50;;;15.40;99.90;;;;;;6245015;23;20254;-68
2022/09/19 19:15:53;;;;;;;1.80;0.50;;;15.30;99.90;;;;;;6244657;23;20175;-68
2022/09/19 19:18:24;;;;;;;1.63;0.40;;;15.30;99.90;;;;;;6244579;23;20196;-68
2022/09/19 19:20:52;;;;;;;2.63;0.50;;;15.20;99.90;;;;;;6243638;23;20262;-68
2022/09/19 19:23:19;;;;;;;0.80;0.40;;;15.20;99.90;;;;;;6243916;23;20212;-67
2022/09/19 19:25:45;;;;;;;2.43;0.67;;;15.20;99.90;;;;;;6244609;23;20643;-68
2022/09/19 19:28:12;;;;;;;1.30;0.37;;;15.20;99.90;;;;;;6244588;23;20200;-68
2022/09/19 19:30:40;;;;;;;0.77;0.33;;;14.80;99.90;;;;;;6244651;23;20175;-68
2022/09/19 19:33:07;;;;;;;1.37;0.20;;;14.80;99.90;;;;;;6244474;23;20182;-67
2022/09/19 19:35:34;;;;;;;0.53;0.30;;;14.90;99.90;;;;;;6244743;23;20180;-67
2022/09/19 19:38:02;;;;;;;1.00;0.37;;;14.80;99.90;;;;;;6244436;23;20206;-67
2022/09/19 19:40:29;;;;;;;0.50;0.30;;;14.70;99.90;;;;;;6244591;22;20662;-67
2022/09/19 19:42:56;;;;;;;1.03;0.30;;;14.70;99.90;;;;;;6243992;23;20203;-67
2022/09/19 19:45:22;;;;;;;0.63;0.20;;;14.60;99.90;;;;;;6245393;23;20201;-67
2022/09/19 19:47:49;;;;;;;0.30;0.30;;;14.70;99.90;;;;;;6246320;23;20275;-67
2022/09/19 19:50:16;;;;;;;4.63;0.40;;;14.70;99.90;;;;;;6246600;23;20557;-68
2022/09/19 19:52:43;;;;;;;2.20;0.40;;;14.60;99.90;;;;;;6246091;22;20184;-67
2022/09/19 19:55:11;;;;;;;1.30;0.40;;;14.60;99.90;;;;;;6244556;23;20179;-68
2022/09/19 19:57:39;;;;;;;1.73;0.40;;;14.60;99.90;;;;;;6246155;23;20199;-68
2022/09/19 20:00:07;;;;;;;1.03;0.30;;;14.60;99.90;;;;;;6246554;23;20238;-68
2022/09/19 20:02:34;;;;;;;0.47;0.47;;;14.60;99.90;;;;;;6246847;23;20182;-68
2022/09/19 20:05:00;;;;;;;2.00;1.13;;;14.70;99.90;;;;;;6246715;23;20176;-68
2022/09/19 20:07:27;;;;;;;2.93;0.40;;;14.80;99.90;;;;;;6244056;23;20199;-67
2022/09/19 20:09:54;;;;;;;2.03;0.50;;;14.80;99.90;;;;;;6245804;23;20632;-67
2022/09/19 20:12:23;;;;;;;0.63;0.30;;;14.80;99.90;;;;;;6246145;23;20186;-68
2022/09/19 20:14:50;;;;;;;1.50;0.50;;;14.80;99.90;;;;;;6246531;23;20234;-67
2022/09/19 20:17:16;;;;;;;1.07;0.30;;;14.80;99.90;;;;;;6246340;23;20195;-67
2022/09/19 20:19:44;;;;;;;3.03;0.60;;;14.80;99.90;;;;;;6246939;23;20176;-67
2022/09/19 20:22:11;;;;;;;1.57;0.40;;;14.90;99.90;;;;;;6246729;23;20176;-67
2022/09/19 20:24:37;;;;;;;0.87;0.50;;;14.80;99.90;;;;;;6246355;23;20214;-67
2022/09/19 20:27:04;;;;;;;1.10;0.20;;;14.80;99.90;;;;;;6246695;23;20203;-68
2022/09/19 20:29:34;;;;;;;1.90;0.30;;;14.80;99.90;;;;;;6246584;23;20191;-67
2022/09/19 20:32:02;;;;;;;1.80;0.40;;;14.80;99.90;;;;;;6246278;23;20175;-67
2022/09/19 20:34:29;;;;;;;1.20;0.30;;;14.90;99.90;;;;;;6245792;23;20184;-68
2022/09/19 20:36:56;;;;;;;0.83;0.30;;;14.90;99.90;;;;;;6246084;23;20314;-66
2022/09/19 20:39:23;;;;;;;1.43;0.30;;;14.90;99.90;;;;;;6246248;23;20187;-68